Accueil
METAR-TAF:

METAR-TAF

Aéroports :

Zahedan, Iran

latitude: 29-28N, longitude: 060-53E, altitude: 1370 m

Observation

Le bulletin a été fait il y a 38 minutes, à 15:00 UTC
Vent 4 kt de nord
Température 33°C
Humidité 20%
Pression 1007 hPa
Visibilité 10 km ou plus
Quelques nuages à une hauteur de 4000 ft
Nuages épars à une hauteur de 10000 ft

METAR: OIZH 161500Z 36004KT 9999 FEW040 SCT100 33/07 Q1007 A2974

Heure: 20:08 (15:38 UTC)

Prévision

Le bulletin a été fait il y a 4 heures et 38 minutes, à 11:00 UTC
Prévision valable du 16 à 12 UTC au 17 à 18 UTC
Vent 6 kt de nord
Visibilité: 8000 m
Temporairement
du 16 à 12 UTC au 16 à 15 UTC
Vent 18 kt de nord
Visibilité: 6000 m
Quelques nuages à une hauteur de 3500 ft, Cumulus congestus.
Nuages épars à une hauteur de 10000 ft

TAF: OIZH 161100Z 1612/1718 35006KT 8000 NSC TEMPO 1612/1615 36018KT 6000 FEW035TCU SCT100

Observations et prévisions météorologiques de plus de 4000 aéroports (messages METAR et TAF).

Les stations disponibles sont représentées par des disques jaunes et rouges sur la carte.

Passer la souris dessus pour voir le nom de la station.

Cliquer dessus pour voir les observations et prévisions météorologiques.

Pour changer de carte: cliquez sur les boutons verts avec une croix noire pour zoomer, sur le bouton vert avec un tiret pour effectuer un zoom arrière, ou sur les flèches vertes pour les cartes adjacentes.


METAR-TAF: